sensor_id;sensor_type;location;lat;lon;timestamp;P1;durP1;ratioP1;P2;durP2;ratioP2
15287;SDS011;7745;48.708;9.026;2022-07-29T00:01:25;5.57;;;5.00;;
15287;SDS011;7745;48.708;9.026;2022-07-29T00:03:52;5.73;;;5.13;;
15287;SDS011;7745;48.708;9.026;2022-07-29T00:06:20;6.00;;;5.30;;
15287;SDS011;7745;48.708;9.026;2022-07-29T00:08:48;5.50;;;5.00;;
15287;SDS011;7745;48.708;9.026;2022-07-29T00:11:15;6.87;;;5.40;;
15287;SDS011;7745;48.708;9.026;2022-07-29T00:13:41;6.00;;;5.50;;
15287;SDS011;7745;48.708;9.026;2022-07-29T00:16:08;5.83;;;5.30;;
15287;SDS011;7745;48.708;9.026;2022-07-29T00:18:35;5.63;;;4.93;;
15287;SDS011;7745;48.708;9.026;2022-07-29T00:21:02;6.30;;;5.20;;
15287;SDS011;7745;48.708;9.026;2022-07-29T00:23:30;5.43;;;4.67;;
15287;SDS011;7745;48.708;9.026;2022-07-29T00:25:57;5.80;;;5.20;;
15287;SDS011;7745;48.708;9.026;2022-07-29T00:28:24;7.13;;;5.17;;
15287;SDS011;7745;48.708;9.026;2022-07-29T00:30:51;6.13;;;5.23;;
15287;SDS011;7745;48.708;9.026;2022-07-29T00:33:18;5.57;;;4.93;;
15287;SDS011;7745;48.708;9.026;2022-07-29T00:35:44;5.83;;;4.57;;
15287;SDS011;7745;48.708;9.026;2022-07-29T00:38:11;6.20;;;4.80;;
15287;SDS011;7745;48.708;9.026;2022-07-29T00:40:40;5.07;;;4.57;;
15287;SDS011;7745;48.708;9.026;2022-07-29T00:43:07;5.13;;;4.63;;
15287;SDS011;7745;48.708;9.026;2022-07-29T00:45:34;5.10;;;4.60;;
15287;SDS011;7745;48.708;9.026;2022-07-29T00:48:01;5.57;;;4.40;;
15287;SDS011;7745;48.708;9.026;2022-07-29T00:50:30;5.07;;;4.60;;
15287;SDS011;7745;48.708;9.026;2022-07-29T00:52:59;5.27;;;4.53;;
15287;SDS011;7745;48.708;9.026;2022-07-29T00:55:27;5.10;;;4.63;;
15287;SDS011;7745;48.708;9.026;2022-07-29T00:57:56;5.07;;;4.60;;
15287;SDS011;7745;48.708;9.026;2022-07-29T01:00:25;5.67;;;4.33;;
15287;SDS011;7745;48.708;9.026;2022-07-29T01:02:53;4.47;;;3.97;;
15287;SDS011;7745;48.708;9.026;2022-07-29T01:05:21;5.50;;;4.23;;
15287;SDS011;7745;48.708;9.026;2022-07-29T01:07:51;5.43;;;4.13;;
15287;SDS011;7745;48.708;9.026;2022-07-29T01:10:20;5.47;;;4.30;;
15287;SDS011;7745;48.708;9.026;2022-07-29T01:12:47;4.50;;;3.80;;
15287;SDS011;7745;48.708;9.026;2022-07-29T01:15:18;5.00;;;4.50;;
15287;SDS011;7745;48.708;9.026;2022-07-29T01:17:47;4.47;;;3.67;;
15287;SDS011;7745;48.708;9.026;2022-07-29T01:20:25;4.40;;;4.00;;
15287;SDS011;7745;48.708;9.026;2022-07-29T01:23:29;4.67;;;4.13;;
15287;SDS011;7745;48.708;9.026;2022-07-29T01:26:23;4.97;;;3.97;;
15287;SDS011;7745;48.708;9.026;2022-07-29T01:29:05;5.40;;;4.10;;
15287;SDS011;7745;48.708;9.026;2022-07-29T01:31:37;4.50;;;4.10;;
15287;SDS011;7745;48.708;9.026;2022-07-29T01:34:09;5.43;;;4.23;;
15287;SDS011;7745;48.708;9.026;2022-07-29T01:36:43;4.23;;;3.80;;
15287;SDS011;7745;48.708;9.026;2022-07-29T01:39:14;5.10;;;4.60;;
15287;SDS011;7745;48.708;9.026;2022-07-29T01:41:48;5.33;;;4.63;;
15287;SDS011;7745;48.708;9.026;2022-07-29T01:44:20;5.40;;;4.30;;
15287;SDS011;7745;48.708;9.026;2022-07-29T01:46:54;6.70;;;4.90;;
15287;SDS011;7745;48.708;9.026;2022-07-29T01:49:25;7.23;;;4.87;;
15287;SDS011;7745;48.708;9.026;2022-07-29T01:51:56;5.33;;;4.83;;
15287;SDS011;7745;48.708;9.026;2022-07-29T01:54:30;5.70;;;5.17;;
15287;SDS011;7745;48.708;9.026;2022-07-29T01:57:01;4.77;;;4.37;;
15287;SDS011;7745;48.708;9.026;2022-07-29T01:59:32;6.73;;;4.40;;
15287;SDS011;7745;48.708;9.026;2022-07-29T02:02:00;6.20;;;5.00;;
15287;SDS011;7745;48.708;9.026;2022-07-29T02:04:28;4.17;;;3.87;;
15287;SDS011;7745;48.708;9.026;2022-07-29T02:06:56;6.00;;;4.83;;
15287;SDS011;7745;48.708;9.026;2022-07-29T02:09:28;4.20;;;3.90;;
15287;SDS011;7745;48.708;9.026;2022-07-29T02:11:56;4.73;;;4.30;;
15287;SDS011;7745;48.708;9.026;2022-07-29T02:14:25;4.20;;;3.90;;
15287;SDS011;7745;48.708;9.026;2022-07-29T02:16:57;4.53;;;4.13;;
15287;SDS011;7745;48.708;9.026;2022-07-29T02:19:26;5.40;;;4.40;;
15287;SDS011;7745;48.708;9.026;2022-07-29T02:21:54;4.37;;;4.00;;
15287;SDS011;7745;48.708;9.026;2022-07-29T02:24:23;5.00;;;4.10;;
15287;SDS011;7745;48.708;9.026;2022-07-29T02:26:52;4.50;;;4.10;;
15287;SDS011;7745;48.708;9.026;2022-07-29T02:29:21;4.63;;;4.13;;
15287;SDS011;7745;48.708;9.026;2022-07-29T02:31:50;6.30;;;3.80;;
15287;SDS011;7745;48.708;9.026;2022-07-29T02:34:20;4.17;;;3.83;;
15287;SDS011;7745;48.708;9.026;2022-07-29T02:36:48;4.53;;;4.13;;
15287;SDS011;7745;48.708;9.026;2022-07-29T02:39:16;4.70;;;4.30;;
15287;SDS011;7745;48.708;9.026;2022-07-29T02:41:44;4.13;;;3.83;;
15287;SDS011;7745;48.708;9.026;2022-07-29T02:44:14;6.10;;;4.63;;
15287;SDS011;7745;48.708;9.026;2022-07-29T02:46:43;5.83;;;3.97;;
15287;SDS011;7745;48.708;9.026;2022-07-29T02:49:16;4.33;;;3.93;;
15287;SDS011;7745;48.708;9.026;2022-07-29T02:51:51;3.83;;;3.50;;
15287;SDS011;7745;48.708;9.026;2022-07-29T02:54:23;4.60;;;4.20;;
15287;SDS011;7745;48.708;9.026;2022-07-29T02:56:57;4.37;;;3.93;;
15287;SDS011;7745;48.708;9.026;2022-07-29T02:59:27;3.93;;;3.50;;
15287;SDS011;7745;48.708;9.026;2022-07-29T03:01:57;4.73;;;4.00;;
15287;SDS011;7745;48.708;9.026;2022-07-29T03:04:25;5.30;;;3.77;;
15287;SDS011;7745;48.708;9.026;2022-07-29T03:06:55;4.07;;;3.63;;
15287;SDS011;7745;48.708;9.026;2022-07-29T03:09:25;5.10;;;4.20;;
15287;SDS011;7745;48.708;9.026;2022-07-29T03:11:54;4.80;;;4.40;;
15287;SDS011;7745;48.708;9.026;2022-07-29T03:14:21;4.80;;;4.40;;
15287;SDS011;7745;48.708;9.026;2022-07-29T03:16:50;5.27;;;4.77;;
15287;SDS011;7745;48.708;9.026;2022-07-29T03:19:18;5.93;;;4.97;;
15287;SDS011;7745;48.708;9.026;2022-07-29T03:21:46;5.10;;;4.50;;
15287;SDS011;7745;48.708;9.026;2022-07-29T03:24:25;4.63;;;4.23;;
15287;SDS011;7745;48.708;9.026;2022-07-29T03:26:56;5.30;;;4.80;;
15287;SDS011;7745;48.708;9.026;2022-07-29T03:29:23;5.03;;;4.50;;
15287;SDS011;7745;48.708;9.026;2022-07-29T03:31:51;6.00;;;5.40;;
15287;SDS011;7745;48.708;9.026;2022-07-29T03:34:17;7.93;;;5.60;;
15287;SDS011;7745;48.708;9.026;2022-07-29T03:36:44;7.37;;;4.93;;
15287;SDS011;7745;48.708;9.026;2022-07-29T03:39:12;5.93;;;5.03;;
15287;SDS011;7745;48.708;9.026;2022-07-29T03:41:43;5.33;;;4.90;;
15287;SDS011;7745;48.708;9.026;2022-07-29T03:44:12;5.37;;;4.87;;
15287;SDS011;7745;48.708;9.026;2022-07-29T03:46:41;6.63;;;5.30;;
15287;SDS011;7745;48.708;9.026;2022-07-29T03:49:09;5.07;;;4.67;;
15287;SDS011;7745;48.708;9.026;2022-07-29T03:51:40;8.50;;;5.10;;
15287;SDS011;7745;48.708;9.026;2022-07-29T03:54:07;7.03;;;4.70;;
15287;SDS011;7745;48.708;9.026;2022-07-29T03:56:34;4.87;;;4.37;;
15287;SDS011;7745;48.708;9.026;2022-07-29T03:59:05;5.00;;;4.50;;
15287;SDS011;7745;48.708;9.026;2022-07-29T04:01:33;4.50;;;4.10;;
15287;SDS011;7745;48.708;9.026;2022-07-29T04:04:01;4.67;;;4.13;;
15287;SDS011;7745;48.708;9.026;2022-07-29T04:06:28;4.27;;;3.97;;
15287;SDS011;7745;48.708;9.026;2022-07-29T04:09:03;4.40;;;4.03;;
15287;SDS011;7745;48.708;9.026;2022-07-29T04:11:29;3.97;;;3.67;;
15287;SDS011;7745;48.708;9.026;2022-07-29T04:13:56;5.53;;;3.93;;
15287;SDS011;7745;48.708;9.026;2022-07-29T04:16:25;3.57;;;3.20;;
15287;SDS011;7745;48.708;9.026;2022-07-29T04:18:52;3.80;;;3.50;;
15287;SDS011;7745;48.708;9.026;2022-07-29T04:21:19;3.70;;;3.40;;
15287;SDS011;7745;48.708;9.026;2022-07-29T04:23:47;3.83;;;3.53;;
15287;SDS011;7745;48.708;9.026;2022-07-29T04:26:15;4.63;;;3.60;;
15287;SDS011;7745;48.708;9.026;2022-07-29T04:28:42;4.13;;;3.23;;
15287;SDS011;7745;48.708;9.026;2022-07-29T04:31:09;6.97;;;4.10;;
15287;SDS011;7745;48.708;9.026;2022-07-29T04:33:38;4.03;;;3.63;;
15287;SDS011;7745;48.708;9.026;2022-07-29T04:36:12;9.30;;;4.13;;
15287;SDS011;7745;48.708;9.026;2022-07-29T04:38:39;7.37;;;4.20;;
15287;SDS011;7745;48.708;9.026;2022-07-29T04:41:06;4.40;;;4.00;;
15287;SDS011;7745;48.708;9.026;2022-07-29T04:43:33;5.17;;;3.87;;
15287;SDS011;7745;48.708;9.026;2022-07-29T04:46:02;5.07;;;4.07;;
15287;SDS011;7745;48.708;9.026;2022-07-29T04:48:29;3.83;;;3.40;;
15287;SDS011;7745;48.708;9.026;2022-07-29T04:50:58;3.57;;;3.27;;
15287;SDS011;7745;48.708;9.026;2022-07-29T04:53:25;5.40;;;3.80;;
15287;SDS011;7745;48.708;9.026;2022-07-29T04:55:52;4.47;;;3.83;;
15287;SDS011;7745;48.708;9.026;2022-07-29T04:58:19;4.57;;;3.50;;
15287;SDS011;7745;48.708;9.026;2022-07-29T05:00:48;39.63;;;5.77;;
15287;SDS011;7745;48.708;9.026;2022-07-29T05:03:15;3.50;;;3.20;;
15287;SDS011;7745;48.708;9.026;2022-07-29T05:05:41;4.37;;;3.60;;
15287;SDS011;7745;48.708;9.026;2022-07-29T05:08:10;5.77;;;3.87;;
15287;SDS011;7745;48.708;9.026;2022-07-29T05:10:37;4.93;;;3.50;;
15287;SDS011;7745;48.708;9.026;2022-07-29T05:13:04;7.27;;;3.70;;
15287;SDS011;7745;48.708;9.026;2022-07-29T05:15:31;9.63;;;3.47;;
15287;SDS011;7745;48.708;9.026;2022-07-29T05:17:59;6.00;;;3.60;;
15287;SDS011;7745;48.708;9.026;2022-07-29T05:20:26;3.63;;;2.70;;
15287;SDS011;7745;48.708;9.026;2022-07-29T05:22:53;3.00;;;2.67;;
15287;SDS011;7745;48.708;9.026;2022-07-29T05:25:21;6.13;;;3.77;;
15287;SDS011;7745;48.708;9.026;2022-07-29T05:27:48;4.20;;;3.23;;
15287;SDS011;7745;48.708;9.026;2022-07-29T05:30:15;6.13;;;3.53;;
15287;SDS011;7745;48.708;9.026;2022-07-29T05:32:42;7.60;;;3.40;;
15287;SDS011;7745;48.708;9.026;2022-07-29T05:35:09;3.80;;;3.00;;
15287;SDS011;7745;48.708;9.026;2022-07-29T05:37:36;6.20;;;3.10;;
15287;SDS011;7745;48.708;9.026;2022-07-29T05:40:04;5.13;;;3.20;;
15287;SDS011;7745;48.708;9.026;2022-07-29T05:42:33;6.33;;;3.20;;
15287;SDS011;7745;48.708;9.026;2022-07-29T05:45:00;3.50;;;3.00;;
15287;SDS011;7745;48.708;9.026;2022-07-29T05:47:27;3.57;;;3.27;;
15287;SDS011;7745;48.708;9.026;2022-07-29T05:49:55;4.27;;;3.40;;
15287;SDS011;7745;48.708;9.026;2022-07-29T05:52:22;3.20;;;2.83;;
15287;SDS011;7745;48.708;9.026;2022-07-29T05:54:50;4.43;;;2.90;;
15287;SDS011;7745;48.708;9.026;2022-07-29T05:57:17;4.70;;;2.90;;
15287;SDS011;7745;48.708;9.026;2022-07-29T05:59:46;4.77;;;3.30;;
15287;SDS011;7745;48.708;9.026;2022-07-29T06:02:13;4.80;;;3.10;;
15287;SDS011;7745;48.708;9.026;2022-07-29T06:04:40;6.57;;;3.10;;
15287;SDS011;7745;48.708;9.026;2022-07-29T06:07:07;5.90;;;3.40;;
15287;SDS011;7745;48.708;9.026;2022-07-29T06:09:34;5.17;;;3.00;;
15287;SDS011;7745;48.708;9.026;2022-07-29T06:12:02;5.33;;;3.20;;
15287;SDS011;7745;48.708;9.026;2022-07-29T06:14:29;3.80;;;3.23;;
15287;SDS011;7745;48.708;9.026;2022-07-29T06:16:58;3.80;;;3.33;;
15287;SDS011;7745;48.708;9.026;2022-07-29T06:19:25;6.40;;;3.43;;
15287;SDS011;7745;48.708;9.026;2022-07-29T06:22:48;3.17;;;2.88;;
15287;SDS011;7745;48.708;9.026;2022-07-29T06:25:41;5.95;;;3.50;;
15287;SDS011;7745;48.708;9.026;2022-07-29T06:28:15;4.28;;;3.88;;
15287;SDS011;7745;48.708;9.026;2022-07-29T06:30:43;4.82;;;3.13;;
15287;SDS011;7745;48.708;9.026;2022-07-29T06:33:17;5.05;;;3.33;;
15287;SDS011;7745;48.708;9.026;2022-07-29T06:35:59;4.07;;;3.67;;
15287;SDS011;7745;48.708;9.026;2022-07-29T06:38:34;5.15;;;3.90;;
15287;SDS011;7745;48.708;9.026;2022-07-29T06:41:15;6.57;;;4.10;;
15287;SDS011;7745;48.708;9.026;2022-07-29T06:43:43;6.53;;;3.83;;
15287;SDS011;7745;48.708;9.026;2022-07-29T06:46:29;8.05;;;4.10;;
15287;SDS011;7745;48.708;9.026;2022-07-29T06:52:07;4.53;;;3.53;;
15287;SDS011;7745;48.708;9.026;2022-07-29T06:54:34;10.73;;;3.80;;
15287;SDS011;7745;48.708;9.026;2022-07-29T06:57:20;7.47;;;4.43;;
15287;SDS011;7745;48.708;9.026;2022-07-29T07:02:40;4.78;;;3.95;;
15287;SDS011;7745;48.708;9.026;2022-07-29T07:05:11;4.63;;;4.22;;
15287;SDS011;7745;48.708;9.026;2022-07-29T07:07:39;4.30;;;3.72;;
15287;SDS011;7745;48.708;9.026;2022-07-29T07:10:19;5.35;;;4.15;;
15287;SDS011;7745;48.708;9.026;2022-07-29T07:12:54;5.43;;;4.18;;
15287;SDS011;7745;48.708;9.026;2022-07-29T07:15:31;6.75;;;4.00;;
15287;SDS011;7745;48.708;9.026;2022-07-29T07:17:58;5.57;;;4.47;;
15287;SDS011;7745;48.708;9.026;2022-07-29T07:23:34;4.78;;;4.25;;
15287;SDS011;7745;48.708;9.026;2022-07-29T07:26:05;6.75;;;3.90;;
15287;SDS011;7745;48.708;9.026;2022-07-29T07:28:35;5.97;;;4.50;;
15287;SDS011;7745;48.708;9.026;2022-07-29T07:31:12;6.72;;;4.60;;
15287;SDS011;7745;48.708;9.026;2022-07-29T07:33:39;7.15;;;4.10;;
15287;SDS011;7745;48.708;9.026;2022-07-29T07:36:08;4.50;;;4.07;;
15287;SDS011;7745;48.708;9.026;2022-07-29T07:38:35;5.95;;;4.07;;
15287;SDS011;7745;48.708;9.026;2022-07-29T07:41:02;4.38;;;3.95;;
15287;SDS011;7745;48.708;9.026;2022-07-29T07:43:29;5.07;;;4.35;;
15287;SDS011;7745;48.708;9.026;2022-07-29T07:45:56;7.13;;;3.88;;
15287;SDS011;7745;48.708;9.026;2022-07-29T07:48:23;5.95;;;4.00;;
15287;SDS011;7745;48.708;9.026;2022-07-29T07:50:50;40.63;;;6.40;;
15287;SDS011;7745;48.708;9.026;2022-07-29T07:53:18;9.60;;;4.30;;
15287;SDS011;7745;48.708;9.026;2022-07-29T07:55:45;7.70;;;4.72;;
15287;SDS011;7745;48.708;9.026;2022-07-29T07:58:12;4.70;;;3.80;;
15287;SDS011;7745;48.708;9.026;2022-07-29T08:00:39;5.07;;;3.78;;
15287;SDS011;7745;48.708;9.026;2022-07-29T08:03:06;7.72;;;4.40;;
15287;SDS011;7745;48.708;9.026;2022-07-29T08:05:33;5.03;;;3.92;;
15287;SDS011;7745;48.708;9.026;2022-07-29T08:08:01;5.97;;;3.70;;
15287;SDS011;7745;48.708;9.026;2022-07-29T08:10:31;16.95;;;5.38;;
15287;SDS011;7745;48.708;9.026;2022-07-29T08:13:15;7.95;;;3.88;;
15287;SDS011;7745;48.708;9.026;2022-07-29T08:15:42;5.00;;;4.00;;
15287;SDS011;7745;48.708;9.026;2022-07-29T08:18:10;4.70;;;4.30;;
15287;SDS011;7745;48.708;9.026;2022-07-29T08:20:37;11.63;;;3.90;;
15287;SDS011;7745;48.708;9.026;2022-07-29T08:23:05;5.53;;;4.07;;
15287;SDS011;7745;48.708;9.026;2022-07-29T08:25:36;7.60;;;3.95;;
15287;SDS011;7745;48.708;9.026;2022-07-29T08:28:05;6.72;;;3.60;;
15287;SDS011;7745;48.708;9.026;2022-07-29T08:30:32;7.45;;;3.90;;
15287;SDS011;7745;48.708;9.026;2022-07-29T08:32:58;7.95;;;4.50;;
15287;SDS011;7745;48.708;9.026;2022-07-29T08:35:26;4.95;;;3.85;;
15287;SDS011;7745;48.708;9.026;2022-07-29T08:37:53;9.57;;;3.90;;
15287;SDS011;7745;48.708;9.026;2022-07-29T08:40:22;5.22;;;3.60;;
15287;SDS011;7745;48.708;9.026;2022-07-29T08:42:50;8.18;;;3.80;;
15287;SDS011;7745;48.708;9.026;2022-07-29T08:45:17;5.93;;;3.40;;
15287;SDS011;7745;48.708;9.026;2022-07-29T08:47:44;7.53;;;3.90;;
15287;SDS011;7745;48.708;9.026;2022-07-29T08:50:14;11.13;;;3.72;;
15287;SDS011;7745;48.708;9.026;2022-07-29T08:52:41;5.85;;;3.72;;
15287;SDS011;7745;48.708;9.026;2022-07-29T08:55:09;5.70;;;3.50;;
15287;SDS011;7745;48.708;9.026;2022-07-29T08:57:38;5.90;;;3.88;;
15287;SDS011;7745;48.708;9.026;2022-07-29T09:00:07;6.70;;;3.33;;
15287;SDS011;7745;48.708;9.026;2022-07-29T09:02:37;6.22;;;4.13;;
15287;SDS011;7745;48.708;9.026;2022-07-29T09:05:06;8.30;;;4.15;;
15287;SDS011;7745;48.708;9.026;2022-07-29T09:10:43;6.50;;;3.58;;
15287;SDS011;7745;48.708;9.026;2022-07-29T09:13:23;6.15;;;3.60;;
15287;SDS011;7745;48.708;9.026;2022-07-29T09:15:53;6.55;;;3.67;;
15287;SDS011;7745;48.708;9.026;2022-07-29T09:21:09;3.90;;;3.33;;
15287;SDS011;7745;48.708;9.026;2022-07-29T09:24:02;4.32;;;3.55;;
15287;SDS011;7745;48.708;9.026;2022-07-29T09:26:34;6.57;;;3.75;;
15287;SDS011;7745;48.708;9.026;2022-07-29T09:29:07;3.53;;;3.22;;
15287;SDS011;7745;48.708;9.026;2022-07-29T09:31:37;5.50;;;3.85;;
15287;SDS011;7745;48.708;9.026;2022-07-29T09:34:06;4.85;;;3.67;;
15287;SDS011;7745;48.708;9.026;2022-07-29T09:36:41;8.90;;;3.67;;
15287;SDS011;7745;48.708;9.026;2022-07-29T09:39:09;6.00;;;3.28;;
15287;SDS011;7745;48.708;9.026;2022-07-29T09:41:44;6.80;;;3.70;;
15287;SDS011;7745;48.708;9.026;2022-07-29T09:44:12;8.30;;;3.42;;
15287;SDS011;7745;48.708;9.026;2022-07-29T09:46:41;9.68;;;3.47;;
15287;SDS011;7745;48.708;9.026;2022-07-29T09:49:30;8.60;;;3.67;;
15287;SDS011;7745;48.708;9.026;2022-07-29T09:52:03;8.32;;;3.90;;
15287;SDS011;7745;48.708;9.026;2022-07-29T09:57:48;7.50;;;3.50;;
15287;SDS011;7745;48.708;9.026;2022-07-29T10:00:15;5.72;;;3.72;;
15287;SDS011;7745;48.708;9.026;2022-07-29T10:02:45;5.90;;;3.50;;
15287;SDS011;7745;48.708;9.026;2022-07-29T10:05:16;5.22;;;3.10;;
15287;SDS011;7745;48.708;9.026;2022-07-29T10:07:45;5.38;;;3.70;;
15287;SDS011;7745;48.708;9.026;2022-07-29T10:10:18;6.05;;;3.60;;
15287;SDS011;7745;48.708;9.026;2022-07-29T10:12:53;6.60;;;3.25;;
15287;SDS011;7745;48.708;9.026;2022-07-29T10:15:22;6.30;;;3.60;;
15287;SDS011;7745;48.708;9.026;2022-07-29T10:17:52;4.93;;;3.20;;
15287;SDS011;7745;48.708;9.026;2022-07-29T10:20:20;4.88;;;3.30;;
15287;SDS011;7745;48.708;9.026;2022-07-29T10:22:47;6.15;;;3.38;;
15287;SDS011;7745;48.708;9.026;2022-07-29T10:25:15;10.07;;;3.50;;
15287;SDS011;7745;48.708;9.026;2022-07-29T10:27:42;7.43;;;3.88;;
15287;SDS011;7745;48.708;9.026;2022-07-29T10:30:10;7.30;;;3.70;;
15287;SDS011;7745;48.708;9.026;2022-07-29T10:32:49;10.88;;;3.70;;
15287;SDS011;7745;48.708;9.026;2022-07-29T10:35:32;6.65;;;3.88;;
15287;SDS011;7745;48.708;9.026;2022-07-29T10:41:03;8.15;;;5.15;;
15287;SDS011;7745;48.708;9.026;2022-07-29T10:43:56;14.35;;;6.22;;
15287;SDS011;7745;48.708;9.026;2022-07-29T10:46:25;12.02;;;7.18;;
15287;SDS011;7745;48.708;9.026;2022-07-29T10:49:08;15.13;;;7.05;;
15287;SDS011;7745;48.708;9.026;2022-07-29T10:54:36;10.47;;;6.93;;
15287;SDS011;7745;48.708;9.026;2022-07-29T10:57:11;8.23;;;6.33;;
15287;SDS011;7745;48.708;9.026;2022-07-29T10:59:39;13.73;;;8.37;;
15287;SDS011;7745;48.708;9.026;2022-07-29T11:05:13;9.93;;;8.10;;
15287;SDS011;7745;48.708;9.026;2022-07-29T11:10:43;13.30;;;10.60;;
15287;SDS011;7745;48.708;9.026;2022-07-29T11:13:10;13.73;;;9.93;;
15287;SDS011;7745;48.708;9.026;2022-07-29T11:15:51;13.47;;;11.03;;
15287;SDS011;7745;48.708;9.026;2022-07-29T11:18:19;13.67;;;10.63;;
15287;SDS011;7745;48.708;9.026;2022-07-29T11:20:48;12.87;;;10.57;;
15287;SDS011;7745;48.708;9.026;2022-07-29T11:23:22;12.53;;;9.17;;
15287;SDS011;7745;48.708;9.026;2022-07-29T11:28:42;12.20;;;7.67;;
15287;SDS011;7745;48.708;9.026;2022-07-29T11:31:19;13.60;;;7.73;;
15287;SDS011;7745;48.708;9.026;2022-07-29T11:34:11;12.70;;;8.43;;
15287;SDS011;7745;48.708;9.026;2022-07-29T11:39:47;12.93;;;8.70;;
15287;SDS011;7745;48.708;9.026;2022-07-29T11:42:39;8.87;;;7.17;;
15287;SDS011;7745;48.708;9.026;2022-07-29T11:45:09;9.90;;;7.10;;
15287;SDS011;7745;48.708;9.026;2022-07-29T11:47:39;11.83;;;8.93;;
15287;SDS011;7745;48.708;9.026;2022-07-29T11:50:07;14.63;;;7.97;;
15287;SDS011;7745;48.708;9.026;2022-07-29T11:52:37;12.40;;;8.30;;
15287;SDS011;7745;48.708;9.026;2022-07-29T11:55:10;12.87;;;8.77;;
15287;SDS011;7745;48.708;9.026;2022-07-29T11:57:45;12.00;;;9.10;;
15287;SDS011;7745;48.708;9.026;2022-07-29T12:00:13;13.80;;;9.18;;
15287;SDS011;7745;48.708;9.026;2022-07-29T12:02:48;12.77;;;8.07;;
15287;SDS011;7745;48.708;9.026;2022-07-29T12:05:15;9.50;;;7.20;;
15287;SDS011;7745;48.708;9.026;2022-07-29T12:07:44;8.05;;;6.60;;
15287;SDS011;7745;48.708;9.026;2022-07-29T12:10:11;7.97;;;7.03;;
15287;SDS011;7745;48.708;9.026;2022-07-29T12:12:38;8.20;;;7.00;;
15287;SDS011;7745;48.708;9.026;2022-07-29T12:15:14;9.33;;;7.43;;
15287;SDS011;7745;48.708;9.026;2022-07-29T12:17:45;8.77;;;7.70;;
15287;SDS011;7745;48.708;9.026;2022-07-29T12:20:12;9.60;;;7.57;;
15287;SDS011;7745;48.708;9.026;2022-07-29T12:22:42;9.10;;;7.37;;
15287;SDS011;7745;48.708;9.026;2022-07-29T12:25:11;11.17;;;7.03;;
15287;SDS011;7745;48.708;9.026;2022-07-29T12:27:41;8.90;;;6.53;;
15287;SDS011;7745;48.708;9.026;2022-07-29T12:30:10;8.83;;;6.93;;
15287;SDS011;7745;48.708;9.026;2022-07-29T12:32:39;8.23;;;6.80;;
15287;SDS011;7745;48.708;9.026;2022-07-29T12:35:09;9.47;;;7.23;;
15287;SDS011;7745;48.708;9.026;2022-07-29T12:37:38;8.20;;;7.37;;
15287;SDS011;7745;48.708;9.026;2022-07-29T12:40:07;14.73;;;8.03;;
15287;SDS011;7745;48.708;9.026;2022-07-29T12:42:36;18.60;;;8.33;;
15287;SDS011;7745;48.708;9.026;2022-07-29T12:45:04;11.23;;;7.77;;
15287;SDS011;7745;48.708;9.026;2022-07-29T12:47:32;9.03;;;6.47;;
15287;SDS011;7745;48.708;9.026;2022-07-29T12:50:08;7.20;;;6.47;;
15287;SDS011;7745;48.708;9.026;2022-07-29T12:52:36;8.97;;;6.73;;
15287;SDS011;7745;48.708;9.026;2022-07-29T12:55:03;8.17;;;7.03;;
15287;SDS011;7745;48.708;9.026;2022-07-29T12:57:31;8.97;;;7.87;;
15287;SDS011;7745;48.708;9.026;2022-07-29T13:00:12;9.73;;;7.63;;
15287;SDS011;7745;48.708;9.026;2022-07-29T13:02:40;13.33;;;8.17;;
15287;SDS011;7745;48.708;9.026;2022-07-29T13:05:08;8.93;;;8.07;;
15287;SDS011;7745;48.708;9.026;2022-07-29T13:07:37;10.57;;;7.57;;
15287;SDS011;7745;48.708;9.026;2022-07-29T13:10:11;8.73;;;6.90;;
15287;SDS011;7745;48.708;9.026;2022-07-29T13:15:30;9.13;;;7.00;;
15287;SDS011;7745;48.708;9.026;2022-07-29T13:17:58;7.83;;;6.97;;
15287;SDS011;7745;48.708;9.026;2022-07-29T13:20:26;9.17;;;6.77;;
15287;SDS011;7745;48.708;9.026;2022-07-29T13:22:54;13.47;;;7.47;;
15287;SDS011;7745;48.708;9.026;2022-07-29T13:25:25;7.63;;;6.73;;
15287;SDS011;7745;48.708;9.026;2022-07-29T13:27:54;9.50;;;7.47;;
15287;SDS011;7745;48.708;9.026;2022-07-29T13:30:21;8.73;;;7.30;;
15287;SDS011;7745;48.708;9.026;2022-07-29T13:32:50;45.03;;;10.40;;
15287;SDS011;7745;48.708;9.026;2022-07-29T13:35:18;18.70;;;8.33;;
15287;SDS011;7745;48.708;9.026;2022-07-29T13:37:46;41.90;;;9.73;;
15287;SDS011;7745;48.708;9.026;2022-07-29T13:40:13;10.33;;;6.63;;
15287;SDS011;7745;48.708;9.026;2022-07-29T13:42:40;8.10;;;6.97;;
15287;SDS011;7745;48.708;9.026;2022-07-29T13:45:08;11.10;;;7.20;;
15287;SDS011;7745;48.708;9.026;2022-07-29T13:47:36;8.23;;;6.53;;
15287;SDS011;7745;48.708;9.026;2022-07-29T13:50:05;9.60;;;6.43;;
15287;SDS011;7745;48.708;9.026;2022-07-29T13:52:35;7.70;;;7.00;;
15287;SDS011;7745;48.708;9.026;2022-07-29T13:55:02;8.80;;;7.87;;
15287;SDS011;7745;48.708;9.026;2022-07-29T13:57:31;8.30;;;7.40;;
15287;SDS011;7745;48.708;9.026;2022-07-29T13:59:58;8.10;;;6.82;;
15287;SDS011;7745;48.708;9.026;2022-07-29T14:02:25;8.70;;;7.30;;
15287;SDS011;7745;48.708;9.026;2022-07-29T14:04:51;11.02;;;7.32;;
15287;SDS011;7745;48.708;9.026;2022-07-29T14:07:20;8.27;;;7.18;;
15287;SDS011;7745;48.708;9.026;2022-07-29T14:09:47;9.55;;;7.78;;
15287;SDS011;7745;48.708;9.026;2022-07-29T14:12:15;7.97;;;7.22;;
15287;SDS011;7745;48.708;9.026;2022-07-29T14:14:41;9.63;;;7.80;;
15287;SDS011;7745;48.708;9.026;2022-07-29T14:17:08;10.07;;;6.97;;
15287;SDS011;7745;48.708;9.026;2022-07-29T14:19:35;9.82;;;8.15;;
15287;SDS011;7745;48.708;9.026;2022-07-29T14:22:03;10.43;;;8.60;;
15287;SDS011;7745;48.708;9.026;2022-07-29T14:24:31;9.88;;;8.38;;
15287;SDS011;7745;48.708;9.026;2022-07-29T14:26:58;9.75;;;8.35;;
15287;SDS011;7745;48.708;9.026;2022-07-29T14:29:25;10.95;;;8.07;;
15287;SDS011;7745;48.708;9.026;2022-07-29T14:31:52;11.52;;;8.27;;
15287;SDS011;7745;48.708;9.026;2022-07-29T14:34:19;11.68;;;7.80;;
15287;SDS011;7745;48.708;9.026;2022-07-29T14:36:46;8.45;;;6.95;;
15287;SDS011;7745;48.708;9.026;2022-07-29T14:39:13;11.73;;;7.28;;
15287;SDS011;7745;48.708;9.026;2022-07-29T14:41:42;8.75;;;7.55;;
15287;SDS011;7745;48.708;9.026;2022-07-29T14:44:09;11.82;;;7.18;;
15287;SDS011;7745;48.708;9.026;2022-07-29T14:46:36;7.05;;;6.35;;
15287;SDS011;7745;48.708;9.026;2022-07-29T14:49:03;8.43;;;7.55;;
15287;SDS011;7745;48.708;9.026;2022-07-29T14:51:32;11.38;;;7.43;;
15287;SDS011;7745;48.708;9.026;2022-07-29T14:53:59;8.18;;;7.38;;
15287;SDS011;7745;48.708;9.026;2022-07-29T14:56:26;9.63;;;8.68;;
15287;SDS011;7745;48.708;9.026;2022-07-29T14:58:56;9.55;;;7.82;;
15287;SDS011;7745;48.708;9.026;2022-07-29T15:01:23;10.20;;;8.07;;
15287;SDS011;7745;48.708;9.026;2022-07-29T15:03:50;7.13;;;6.38;;
15287;SDS011;7745;48.708;9.026;2022-07-29T15:06:17;8.70;;;7.80;;
15287;SDS011;7745;48.708;9.026;2022-07-29T15:08:44;9.90;;;8.70;;
15287;SDS011;7745;48.708;9.026;2022-07-29T15:11:11;9.77;;;8.88;;
15287;SDS011;7745;48.708;9.026;2022-07-29T15:13:38;9.77;;;8.32;;
15287;SDS011;7745;48.708;9.026;2022-07-29T15:16:06;15.25;;;8.50;;
15287;SDS011;7745;48.708;9.026;2022-07-29T15:18:34;9.02;;;7.95;;
15287;SDS011;7745;48.708;9.026;2022-07-29T15:21:03;12.55;;;7.55;;
15287;SDS011;7745;48.708;9.026;2022-07-29T15:23:31;8.75;;;7.15;;
15287;SDS011;7745;48.708;9.026;2022-07-29T15:26:00;10.73;;;7.63;;
15287;SDS011;7745;48.708;9.026;2022-07-29T15:28:27;9.02;;;7.00;;
15287;SDS011;7745;48.708;9.026;2022-07-29T15:30:54;8.20;;;6.63;;
15287;SDS011;7745;48.708;9.026;2022-07-29T15:33:22;7.75;;;6.18;;
15287;SDS011;7745;48.708;9.026;2022-07-29T15:35:49;9.85;;;6.00;;
15287;SDS011;7745;48.708;9.026;2022-07-29T15:38:15;7.05;;;6.07;;
15287;SDS011;7745;48.708;9.026;2022-07-29T15:40:43;6.72;;;5.82;;
15287;SDS011;7745;48.708;9.026;2022-07-29T15:43:11;6.65;;;5.88;;
15287;SDS011;7745;48.708;9.026;2022-07-29T15:45:38;8.50;;;6.18;;
15287;SDS011;7745;48.708;9.026;2022-07-29T15:48:07;7.13;;;5.78;;
15287;SDS011;7745;48.708;9.026;2022-07-29T15:50:36;6.82;;;5.70;;
15287;SDS011;7745;48.708;9.026;2022-07-29T15:53:04;7.72;;;6.50;;
15287;SDS011;7745;48.708;9.026;2022-07-29T15:55:31;7.53;;;6.47;;